Observations for EXETER AIRPORT, United Kingdom (EGTE)

EGTE 241520Z 04012KT CAVOK 06/M01 Q1019 
EGTE 241450Z 05012KT 030V090 CAVOK 05/M01 Q1019 
EGTE 241420Z 06010KT CAVOK 05/M01 Q1019 
EGTE 241350Z 07011KT CAVOK 05/M02 Q1019 
EGTE 241320Z 06011KT CAVOK 05/M02 Q1019 
EGTE 241250Z 06012KT CAVOK 04/M03 Q1019 
EGTE 241220Z 07009KT 030V090 CAVOK 04/M03 Q1019 
EGTE 241150Z 07010KT 030V090 CAVOK 03/M03 Q1020 
EGTE 241120Z 05010KT 020V080 CAVOK 03/M04 Q1020 
EGTE 241050Z 06012KT 9000 NSC 02/M04 Q1019  
EGTE 241020Z 05011KT 9000 NSC 02/M03 Q1020  
EGTE 240950Z 04009KT 9000 NSC 01/M03 Q1019  
EGTE 240920Z 04009KT 9000 NSC 00/M03 Q1019  
EGTE 240850Z 02006KT 9000 NSC M01/M04 Q1019 
EGTE 240820Z 02007KT 340V040 9000 NSC M01/M04 Q1019 
EGTE 240750Z 35006KT 9000 NSC M02/M04 Q1019 
EGTE 240720Z 36007KT 9000 NSC M01/M04 Q1018 
EGTE 240650Z 01007KT 9999 FEW028 M01/M04 Q1018  
EGTE 240620Z 04007KT 9999 FEW028 M01/M04 Q1018  
EGTE 240550Z 05009KT 9999 BKN028 M00/M04 Q1017  
EGTE 240220Z 05007KT 9999 BKN030 01/M02 Q1017   
EGTE 240150Z 06008KT 9999 BKN030 01/M03 Q1017   
EGTE 240120Z 04007KT 9999 BKN030 01/M03 Q1017   
EGTE 240050Z 03006KT 9999 BKN035 01/M03 Q1017   
EGTE 240020Z 03009KT 9999 BKN026 01/M03 Q1017   
EGTE 232350Z 04009KT 9999 BKN026 01/M03 Q1017   
EGTE 232320Z 06009KT 9999 BKN026 01/M03 Q1017   
EGTE 232250Z 06010KT 9999 BKN026 01/M03 Q1017   
EGTE 232220Z 07010KT 9999 BKN028 01/M03 Q1017   
EGTE 232150Z 04008KT 9999 BKN028 01/M03 Q1017   
EGTE 232120Z 02006KT 9999 BKN028 00/M03 Q1017   
EGTE 232050Z 04005KT 010V070 9999 SCT028 M00/M04 Q1017  
EGTE 232020Z 04006KT 9999 FEW035 00/M03 Q1017   
EGTE 231950Z 03006KT 9999 FEW035 00/M03 Q1017   
EGTE 231920Z VRB03KT 9999 FEW035 01/M04 Q1017   
EGTE 231850Z VRB02KT 9999 FEW035 02/M04 Q1017   
EGTE 231820Z 08005KT CAVOK 01/M04 Q1017 
EGTE 231750Z 10006KT CAVOK 02/M03 Q1017 
EGTE 231720Z 10008KT CAVOK 03/M02 Q1017 
EGTE 231650Z 11009KT CAVOK 04/M02 Q1017 
EGTE 231620Z 10010KT 9999 FEW030 04/M02 Q1017   
EGTE 231550Z 10013KT 9999 FEW030 04/M02 Q1017   
EGTE 231520Z 12013KT 080V140 9999 FEW030 04/M02 Q1017   
EGTE 231450Z 12014KT 9999 FEW030 04/M02 Q1018